Helas — C4AZ2 — position and weather

sailwx.info

Track history (hours):
 
Tides and Currents Weather Stations Pressure Air Temp Water Temp Dewpoint Dewpoint Depression Visibility Wind Speed Wind Dir Waves Ship Positions

Helas

Last reported at 2014-Sep-28 23:28 UTC. Time now 2014-Oct-01 16:26 UTC.
Position N 50°09' W 002°02'.

Length 89 m; draft 5.5 m.

Type: Cargo ship. MMSI: 210031000.

Date/timePositionNaut miles runAvg speedWind from/ knotsBaromVisibWave heightAir tempDewpointWater temp
2014-Sep-28 23:28N 50°09' W 002°02'6 6.6
2014-Sep-28 22:33N 50°10' W 001°53'6 6.3
2014-Sep-28 21:33N 50°12' W 001°44'7 6.9
2014-Sep-28 20:33N 50°14' W 001°33'12 8.9
2014-Sep-28 19:11N 50°18' W 001°15'710.8
2014-Sep-28 18:33N 50°20' W 001°05'1212.0
2014-Sep-28 17:31N 50°23' W 000°46'1212.1
2014-Sep-28 16:32N 50°26' W 000°28'1111.6
2014-Sep-28 15:33N 50°30' W 000°11'1110.7
2014-Sep-28 14:34N 50°33' E 000°05'1010.0
2014-Sep-28 13:33N 50°36' E 000°20'9 9.0
2014-Sep-28 12:33N 50°38' E 000°34'9 8.5
2014-Sep-28 11:32N 50°43' E 000°45'9 8.9
2014-Sep-28 10:28N 50°48' E 000°58'1310.6
2014-Sep-28 09:12N 50°57' E 001°14'812.3
2014-Sep-28 08:32N 51°02' E 001°24'1212.1
2014-Sep-28 07:33N 51°10' E 001°38'1010.4
2014-Sep-28 06:33N 51°18' E 001°49'9 9.1
2014-Sep-28 05:33N 51°26' E 001°56'8 8.0
2014-Sep-28 04:33N 51°32' E 002°03'8 7.8
2014-Sep-28 03:34N 51°38' E 002°12'8 7.8
2014-Sep-28 02:33N 51°44' E 002°20'9 8.7
2014-Sep-28 01:33N 51°50' E 002°30'10 9.9
2014-Sep-28 00:33N 51°58' E 002°41'1410.9
2014-Sep-27 23:17N 52°08' E 002°55'811.1
2014-Sep-27 22:32N 52°14' E 003°05'1010.6
2014-Sep-27 21:33N 52°19' E 003°20'1110.3
2014-Sep-27 20:32N 52°25' E 003°34'10 9.5
2014-Sep-27 19:26N 52°30' E 003°49'8 9.0
2014-Sep-27 18:31N 52°31' E 004°03'9 9.0
2014-Sep-27 17:33N 52°30' E 004°17'9 9.0
2014-Sep-27 16:34N 52°28' E 004°31'3 3.1
2014-Sep-27 15:33N 52°28' E 004°36'0 0.0
2014-Sep-27 14:33N 52°28' E 004°36'0 0.0
2014-Sep-27 13:32N 52°28' E 004°36'0 0.0
2014-Sep-27 12:32N 52°28' E 004°36'0 0.0
2014-Sep-27 11:32N 52°28' E 004°36'0 0.0
2014-Sep-27 10:32N 52°28' E 004°36'0 0.0
2014-Sep-27 09:32N 52°28' E 004°36'0 0.0
2014-Sep-27 08:32N 52°28' E 004°36'0 0.0
2014-Sep-27 07:32N 52°28' E 004°36'0 0.0
2014-Sep-27 06:32N 52°28' E 004°36'0 0.0
2014-Sep-27 05:29N 52°28' E 004°36'0 0.0
2014-Sep-27 04:29N 52°28' E 004°36'0 0.0
2014-Sep-27 03:32N 52°28' E 004°36'0 0.0
2014-Sep-27 02:32N 52°28' E 004°36'0 0.0
2014-Sep-27 01:32N 52°28' E 004°36'0 0.0
2014-Sep-27 00:32N 52°28' E 004°36'0 0.0
2014-Sep-26 23:32N 52°28' E 004°36'0 0.0
2014-Sep-26 22:26N 52°28' E 004°36'0 0.0
2014-Sep-26 21:29N 52°28' E 004°36'0 0.0
2014-Sep-26 20:32N 52°28' E 004°36'0 0.0
2014-Sep-26 19:32N 52°28' E 004°36'0 0.0
2014-Sep-26 18:32N 52°28' E 004°36'0 0.0
2014-Sep-26 17:32N 52°28' E 004°36'0 0.0
2014-Sep-26 16:32N 52°28' E 004°36'0 0.0
2014-Sep-26 15:29N 52°28' E 004°36'0 0.0
2014-Sep-26 14:29N 52°28' E 004°36'0 0.0
2014-Sep-26 13:32N 52°28' E 004°36'0 0.0
2014-Sep-26 12:32N 52°28' E 004°36'0 0.0
2014-Sep-26 11:32N 52°28' E 004°36'0 0.0
2014-Sep-26 10:32N 52°28' E 004°36'0 0.0
2014-Sep-26 09:29N 52°28' E 004°36'0 0.0
2014-Sep-26 08:32N 52°28' E 004°36'0 0.0
2014-Sep-26 07:32N 52°28' E 004°36'0 0.0
2014-Sep-26 06:31N 52°28' E 004°36'0 0.0
2014-Sep-26 05:31N 52°28' E 004°36'0 0.0
2014-Sep-26 04:31N 52°28' E 004°36'0 0.0
2014-Sep-26 03:31N 52°28' E 004°36'0 0.0
2014-Sep-26 02:28N 52°28' E 004°36'0 0.0
2014-Sep-26 01:31N 52°28' E 004°36'0 0.0
2014-Sep-26 00:31N 52°28' E 004°36'0 0.0
2014-Sep-25 23:31N 52°28' E 004°36'0 0.0
2014-Sep-25 22:28N 52°28' E 004°36'0 0.0
2014-Sep-25 21:31N 52°28' E 004°36'0 0.0
2014-Sep-25 20:31N 52°28' E 004°36'0 0.0
2014-Sep-25 19:31N 52°28' E 004°36'0 0.0
2014-Sep-25 18:31N 52°28' E 004°36'0 0.0
2014-Sep-25 17:31N 52°28' E 004°36'0 0.0
2014-Sep-25 16:31N 52°28' E 004°36'0 0.0
2014-Sep-25 15:31N 52°28' E 004°36'0 0.0
2014-Sep-25 14:31N 52°28' E 004°36'0 0.0
2014-Sep-25 13:31N 52°28' E 004°36'0 0.0
2014-Sep-25 12:31N 52°28' E 004°36'0 0.0
2014-Sep-25 11:31N 52°28' E 004°36'0 0.0
2014-Sep-25 10:31N 52°28' E 004°36'0 0.0
2014-Sep-25 09:31N 52°28' E 004°36'0 0.3
2014-Sep-25 08:34N 52°28' E 004°36'9 9.3
2014-Sep-25 07:33N 52°28' E 004°21'1010.5
2014-Sep-25 06:33N 52°26' E 004°04'2 1.5
2014-Sep-25 05:32N 52°26' E 004°01'0 0.0
2014-Sep-25 04:32N 52°26' E 004°01'0 0.0
2014-Sep-25 03:08N 52°26' E 004°01'0 0.0
2014-Sep-25 02:20N 52°26' E 004°01'0 0.1
2014-Sep-25 01:29N 52°26' E 004°01'0 0.0
2014-Sep-25 00:20N 52°26' E 004°01'0 0.0
2014-Sep-24 23:32N 52°26' E 004°01'0 0.0
2014-Sep-24 22:32N 52°26' E 004°01'0 0.0
2014-Sep-24 21:29N 52°26' E 004°01'0 0.0
2014-Sep-24 20:20N 52°26' E 004°01'0 0.0
2014-Sep-24 19:23N 52°26' E 004°01'0 0.0
2014-Sep-24 18:05N 52°26' E 004°01'0 0.0
2014-Sep-24 17:23N 52°26' E 004°01'0 0.1
2014-Sep-24 16:08N 52°26' E 004°01'0 0.0
2014-Sep-24 15:14N 52°26' E 004°01'0 0.0
2014-Sep-24 14:29N 52°26' E 004°01'0 0.0
2014-Sep-24 13:07N 52°26' E 004°01'0 0.0
2014-Sep-24 12:31N 52°26' E 004°01'0 0.0
2014-Sep-24 11:28N 52°26' E 004°01'0 0.0
2014-Sep-24 10:28N 52°26' E 004°01'0 0.0
2014-Sep-24 09:19N 52°26' E 004°01'0 0.0
2014-Sep-24 08:19N 52°26' E 004°01'0 0.0
2014-Sep-24 07:22N 52°26' E 004°01'0 0.0
2014-Sep-24 05:22N 52°26' E 004°01'0 0.0
2014-Sep-24 04:28N 52°26' E 004°01'0 0.0
2014-Sep-24 03:31N 52°26' E 004°01'0 0.0
2014-Sep-24 02:31N 52°26' E 004°01'0 0.0
2014-Sep-24 01:31N 52°26' E 004°01'0 0.0
2014-Sep-24 00:31N 52°26' E 004°01'0 0.0
2014-Sep-23 23:25N 52°26' E 004°01'0 0.0
2014-Sep-23 22:31N 52°26' E 004°01'0 0.0
2014-Sep-23 21:31N 52°26' E 004°01'0 0.0
2014-Sep-23 20:31N 52°26' E 004°01'0 0.0
2014-Sep-23 19:31N 52°26' E 004°01'0 0.0
2014-Sep-23 18:31N 52°26' E 004°01'0 0.0
2014-Sep-23 17:22N 52°26' E 004°01'0 0.0
2014-Sep-23 16:31N 52°26' E 004°01'0 0.0
2014-Sep-23 15:31N 52°26' E 004°01'0 0.0
2014-Sep-23 14:31N 52°26' E 004°01'0 0.0
2014-Sep-23 13:31N 52°26' E 004°01'0 0.0
2014-Sep-23 12:28N 52°26' E 004°01'0 0.1
2014-Sep-23 11:31N 52°26' E 004°01'0 0.0
2014-Sep-23 10:31N 52°26' E 004°01'0 0.0
2014-Sep-23 09:31N 52°26' E 004°01'0 0.0
2014-Sep-23 08:31N 52°26' E 004°01'0 0.0
2014-Sep-23 07:31N 52°26' E 004°01'0 0.0
2014-Sep-23 06:31N 52°26' E 004°01'0 0.0
2014-Sep-23 05:31N 52°26' E 004°01'0 0.0
2014-Sep-23 04:33N 52°26' E 004°01'0 0.0
2014-Sep-23 03:33N 52°26' E 004°01'0 0.0
2014-Sep-23 02:30N 52°26' E 004°01'0 0.0
2014-Sep-23 01:33N 52°26' E 004°01'0 0.1
2014-Sep-23 00:30N 52°26' E 004°01'4 4.6
2014-Sep-22 23:33N 52°26' E 003°54'10 9.8
2014-Sep-22 22:32N 52°21' E 003°40'9 8.9
2014-Sep-22 21:33N 52°13' E 003°32'34 6.8
2014-Sep-22 16:33N 51°40' E 003°19'1010.6
2014-Sep-22 15:33N 51°31' E 003°26'9 9.1
2014-Sep-22 14:33N 51°26' E 003°39'10 9.9
2014-Sep-22 13:33N 51°24' E 003°54'7 6.6
2014-Sep-22 12:34N 51°24' E 004°05'7 7.0
2014-Sep-22 11:34N 51°21' E 004°15'2 1.6
2014-Sep-22 10:34N 51°21' E 004°17'1 1.3
2014-Sep-22 09:33N 51°20' E 004°18'3 3.1
2014-Sep-22 08:31N 51°17' E 004°21'0 0.0
2014-Sep-22 07:31N 51°17' E 004°21'0 0.0
2014-Sep-22 06:31N 51°17' E 004°21'0 0.0
2014-Sep-22 05:31N 51°17' E 004°21'0 0.0
2014-Sep-22 04:31N 51°17' E 004°21'0 0.0
2014-Sep-22 03:31N 51°17' E 004°21'0 0.0
2014-Sep-22 02:31N 51°17' E 004°21'0 0.0
2014-Sep-22 01:31N 51°17' E 004°21'0 0.0
2014-Sep-22 00:31N 51°17' E 004°21'0 0.0
2014-Sep-21 23:31N 51°17' E 004°21'0 0.0
2014-Sep-21 22:31N 51°17' E 004°21'0 0.0
2014-Sep-21 21:31N 51°17' E 004°21'0 0.0
2014-Sep-21 20:31N 51°17' E 004°21'0 0.0
2014-Sep-21 19:31N 51°17' E 004°21'0 0.0
2014-Sep-21 18:31N 51°17' E 004°21'0 0.0
2014-Sep-21 17:31N 51°17' E 004°21'0 0.0
2014-Sep-21 16:31N 51°17' E 004°21'0 0.0
2014-Sep-21 15:31N 51°17' E 004°21'0 0.0
2014-Sep-21 14:31N 51°17' E 004°21'0 0.0
2014-Sep-21 13:31N 51°17' E 004°21'0 0.0
2014-Sep-21 12:31N 51°17' E 004°21'0 0.0
2014-Sep-21 11:31N 51°17' E 004°21'0 0.0
2014-Sep-21 10:31N 51°17' E 004°21'0 0.0
2014-Sep-21 09:31N 51°17' E 004°21'0 0.0
2014-Sep-21 08:31N 51°17' E 004°21'0 0.0
2014-Sep-21 07:31N 51°17' E 004°21'0 0.0
2014-Sep-21 06:31N 51°17' E 004°21'0 0.0
2014-Sep-21 05:31N 51°17' E 004°21'0 0.0
2014-Sep-21 04:34N 51°17' E 004°21'0 0.0
2014-Sep-21 03:30N 51°17' E 004°21'0 0.0
2014-Sep-21 02:30N 51°17' E 004°21'0 0.0
2014-Sep-21 01:33N 51°17' E 004°21'0 0.0
2014-Sep-21 00:30N 51°17' E 004°21'0 0.0
2014-Sep-20 23:33N 51°17' E 004°21'1 0.9
2014-Sep-20 22:34N 51°17' E 004°20'1 1.4
2014-Sep-20 21:34N 51°18' E 004°18'8 8.1
2014-Sep-20 20:33N 51°22' E 004°08'7 7.2
2014-Sep-20 19:33N 51°22' E 003°56'9 9.5
2014-Sep-20 18:33N 51°24' E 003°41'1010.0
2014-Sep-20 17:33N 51°24' E 003°25'10 9.4
2014-Sep-20 16:30N 51°23' E 003°10'10 9.7
2014-Sep-20 15:28N 51°22' E 002°54'1010.6
2014-Sep-20 14:33N 51°22' E 002°38'1010.2
2014-Sep-20 13:33N 51°19' E 002°22'1111.4
2014-Sep-20 12:33N 51°14' E 002°07'1211.9
2014-Sep-20 11:34N 51°08' E 001°50'1212.4
2014-Sep-20 10:33N 50°59' E 001°36'1612.2
2014-Sep-20 09:14N 50°46' E 001°22'1011.2
2014-Sep-20 08:19N 50°38' E 001°11'911.3
2014-Sep-20 07:32N 50°33' E 000°60'1111.4
2014-Sep-20 06:34N 50°29' E 000°43'1211.6
2014-Sep-20 05:32N 50°26' E 000°25'1111.6
2014-Sep-20 04:33N 50°22' E 000°08'2210.9
2014-Sep-20 02:33N 50°16' W 000°24'1410.0
2014-Sep-20 01:06N 50°12' W 000°46'6 9.3
2014-Sep-20 00:29N 50°10' W 000°55'8 9.0
2014-Sep-19 23:34N 50°08' W 001°07'170 7.4
2014-Sep-19 00:33N 50°37' W 005°30'1010.2
2014-Sep-18 23:33N 50°44' W 005°18'  
Track history (hours):
 
Tides and Currents Weather Stations Pressure Air Temp Water Temp Dewpoint Dewpoint Depression Visibility Wind Speed Wind Dir Waves Ship Positions

Helas

Last reported at 2014-Sep-28 23:28 UTC. Time now 2014-Oct-01 16:26 UTC.
Position N 50°09' W 002°02'.

Length 89 m; draft 5.5 m.

Type: Cargo ship. MMSI: 210031000.

Date/timePositionNaut miles runAvg speedWind from/ knotsBaromVisibWave heightAir tempDewpointWater temp
2014-Sep-28 23:28N 50°09' W 002°02'6 6.6
2014-Sep-28 22:33N 50°10' W 001°53'6 6.3
2014-Sep-28 21:33N 50°12' W 001°44'7 6.9
2014-Sep-28 20:33N 50°14' W 001°33'12 8.9
2014-Sep-28 19:11N 50°18' W 001°15'710.8
2014-Sep-28 18:33N 50°20' W 001°05'1212.0
2014-Sep-28 17:31N 50°23' W 000°46'1212.1
2014-Sep-28 16:32N 50°26' W 000°28'1111.6
2014-Sep-28 15:33N 50°30' W 000°11'1110.7
2014-Sep-28 14:34N 50°33' E 000°05'1010.0
2014-Sep-28 13:33N 50°36' E 000°20'9 9.0
2014-Sep-28 12:33N 50°38' E 000°34'9 8.5
2014-Sep-28 11:32N 50°43' E 000°45'9 8.9
2014-Sep-28 10:28N 50°48' E 000°58'1310.6
2014-Sep-28 09:12N 50°57' E 001°14'812.3
2014-Sep-28 08:32N 51°02' E 001°24'1212.1
2014-Sep-28 07:33N 51°10' E 001°38'1010.4
2014-Sep-28 06:33N 51°18' E 001°49'9 9.1
2014-Sep-28 05:33N 51°26' E 001°56'8 8.0
2014-Sep-28 04:33N 51°32' E 002°03'8 7.8
2014-Sep-28 03:34N 51°38' E 002°12'8 7.8
2014-Sep-28 02:33N 51°44' E 002°20'9 8.7
2014-Sep-28 01:33N 51°50' E 002°30'10 9.9
2014-Sep-28 00:33N 51°58' E 002°41'1410.9
2014-Sep-27 23:17N 52°08' E 002°55'811.1
2014-Sep-27 22:32N 52°14' E 003°05'1010.6
2014-Sep-27 21:33N 52°19' E 003°20'1110.3
2014-Sep-27 20:32N 52°25' E 003°34'10 9.5
2014-Sep-27 19:26N 52°30' E 003°49'8 9.0
2014-Sep-27 18:31N 52°31' E 004°03'9 9.0
2014-Sep-27 17:33N 52°30' E 004°17'9 9.0
2014-Sep-27 16:34N 52°28' E 004°31'3 3.1
2014-Sep-27 15:33N 52°28' E 004°36'0 0.0
2014-Sep-27 14:33N 52°28' E 004°36'0 0.0
2014-Sep-27 13:32N 52°28' E 004°36'0 0.0
2014-Sep-27 12:32N 52°28' E 004°36'0 0.0
2014-Sep-27 11:32N 52°28' E 004°36'0 0.0
2014-Sep-27 10:32N 52°28' E 004°36'0 0.0
2014-Sep-27 09:32N 52°28' E 004°36'0 0.0
2014-Sep-27 08:32N 52°28' E 004°36'0 0.0
2014-Sep-27 07:32N 52°28' E 004°36'0 0.0
2014-Sep-27 06:32N 52°28' E 004°36'0 0.0
2014-Sep-27 05:29N 52°28' E 004°36'0 0.0
2014-Sep-27 04:29N 52°28' E 004°36'0 0.0
2014-Sep-27 03:32N 52°28' E 004°36'0 0.0
2014-Sep-27 02:32N 52°28' E 004°36'0 0.0
2014-Sep-27 01:32N 52°28' E 004°36'0 0.0
2014-Sep-27 00:32N 52°28' E 004°36'0 0.0
2014-Sep-26 23:32N 52°28' E 004°36'0 0.0
2014-Sep-26 22:26N 52°28' E 004°36'0 0.0
2014-Sep-26 21:29N 52°28' E 004°36'0 0.0
2014-Sep-26 20:32N 52°28' E 004°36'0 0.0
2014-Sep-26 19:32N 52°28' E 004°36'0 0.0
2014-Sep-26 18:32N 52°28' E 004°36'0 0.0
2014-Sep-26 17:32N 52°28' E 004°36'0 0.0
2014-Sep-26 16:32N 52°28' E 004°36'0 0.0
2014-Sep-26 15:29N 52°28' E 004°36'0 0.0
2014-Sep-26 14:29N 52°28' E 004°36'0 0.0
2014-Sep-26 13:32N 52°28' E 004°36'0 0.0
2014-Sep-26 12:32N 52°28' E 004°36'0 0.0
2014-Sep-26 11:32N 52°28' E 004°36'0 0.0
2014-Sep-26 10:32N 52°28' E 004°36'0 0.0
2014-Sep-26 09:29N 52°28' E 004°36'0 0.0
2014-Sep-26 08:32N 52°28' E 004°36'0 0.0
2014-Sep-26 07:32N 52°28' E 004°36'0 0.0
2014-Sep-26 06:31N 52°28' E 004°36'0 0.0
2014-Sep-26 05:31N 52°28' E 004°36'0 0.0
2014-Sep-26 04:31N 52°28' E 004°36'0 0.0
2014-Sep-26 03:31N 52°28' E 004°36'0 0.0
2014-Sep-26 02:28N 52°28' E 004°36'0 0.0
2014-Sep-26 01:31N 52°28' E 004°36'0 0.0
2014-Sep-26 00:31N 52°28' E 004°36'0 0.0
2014-Sep-25 23:31N 52°28' E 004°36'0 0.0
2014-Sep-25 22:28N 52°28' E 004°36'0 0.0
2014-Sep-25 21:31N 52°28' E 004°36'0 0.0
2014-Sep-25 20:31N 52°28' E 004°36'0 0.0
2014-Sep-25 19:31N 52°28' E 004°36'0 0.0
2014-Sep-25 18:31N 52°28' E 004°36'0 0.0
2014-Sep-25 17:31N 52°28' E 004°36'0 0.0
2014-Sep-25 16:31N 52°28' E 004°36'0 0.0
2014-Sep-25 15:31N 52°28' E 004°36'0 0.0
2014-Sep-25 14:31N 52°28' E 004°36'0 0.0
2014-Sep-25 13:31N 52°28' E 004°36'0 0.0
2014-Sep-25 12:31N 52°28' E 004°36'0 0.0
2014-Sep-25 11:31N 52°28' E 004°36'0 0.0
2014-Sep-25 10:31N 52°28' E 004°36'0 0.0
2014-Sep-25 09:31N 52°28' E 004°36'0 0.3
2014-Sep-25 08:34N 52°28' E 004°36'9 9.3
2014-Sep-25 07:33N 52°28' E 004°21'1010.5
2014-Sep-25 06:33N 52°26' E 004°04'2 1.5
2014-Sep-25 05:32N 52°26' E 004°01'0 0.0
2014-Sep-25 04:32N 52°26' E 004°01'0 0.0
2014-Sep-25 03:08N 52°26' E 004°01'0 0.0
2014-Sep-25 02:20N 52°26' E 004°01'0 0.1
2014-Sep-25 01:29N 52°26' E 004°01'0 0.0
2014-Sep-25 00:20N 52°26' E 004°01'0 0.0
2014-Sep-24 23:32N 52°26' E 004°01'0 0.0
2014-Sep-24 22:32N 52°26' E 004°01'0 0.0
2014-Sep-24 21:29N 52°26' E 004°01'0 0.0
2014-Sep-24 20:20N 52°26' E 004°01'0 0.0
2014-Sep-24 19:23N 52°26' E 004°01'0 0.0
2014-Sep-24 18:05N 52°26' E 004°01'0 0.0
2014-Sep-24 17:23N 52°26' E 004°01'0 0.1
2014-Sep-24 16:08N 52°26' E 004°01'0 0.0
2014-Sep-24 15:14N 52°26' E 004°01'0 0.0
2014-Sep-24 14:29N 52°26' E 004°01'0 0.0
2014-Sep-24 13:07N 52°26' E 004°01'0 0.0
2014-Sep-24 12:31N 52°26' E 004°01'0 0.0
2014-Sep-24 11:28N 52°26' E 004°01'0 0.0
2014-Sep-24 10:28N 52°26' E 004°01'0 0.0
2014-Sep-24 09:19N 52°26' E 004°01'0 0.0
2014-Sep-24 08:19N 52°26' E 004°01'0 0.0
2014-Sep-24 07:22N 52°26' E 004°01'0 0.0
2014-Sep-24 05:22N 52°26' E 004°01'0 0.0
2014-Sep-24 04:28N 52°26' E 004°01'0 0.0
2014-Sep-24 03:31N 52°26' E 004°01'0 0.0
2014-Sep-24 02:31N 52°26' E 004°01'0 0.0
2014-Sep-24 01:31N 52°26' E 004°01'0 0.0
2014-Sep-24 00:31N 52°26' E 004°01'0 0.0
2014-Sep-23 23:25N 52°26' E 004°01'0 0.0
2014-Sep-23 22:31N 52°26' E 004°01'0 0.0
2014-Sep-23 21:31N 52°26' E 004°01'0 0.0
2014-Sep-23 20:31N 52°26' E 004°01'0 0.0
2014-Sep-23 19:31N 52°26' E 004°01'0 0.0
2014-Sep-23 18:31N 52°26' E 004°01'0 0.0
2014-Sep-23 17:22N 52°26' E 004°01'0 0.0
2014-Sep-23 16:31N 52°26' E 004°01'0 0.0
2014-Sep-23 15:31N 52°26' E 004°01'0 0.0
2014-Sep-23 14:31N 52°26' E 004°01'0 0.0
2014-Sep-23 13:31N 52°26' E 004°01'0 0.0
2014-Sep-23 12:28N 52°26' E 004°01'0 0.1
2014-Sep-23 11:31N 52°26' E 004°01'0 0.0
2014-Sep-23 10:31N 52°26' E 004°01'0 0.0
2014-Sep-23 09:31N 52°26' E 004°01'0 0.0
2014-Sep-23 08:31N 52°26' E 004°01'0 0.0
2014-Sep-23 07:31N 52°26' E 004°01'0 0.0
2014-Sep-23 06:31N 52°26' E 004°01'0 0.0
2014-Sep-23 05:31N 52°26' E 004°01'0 0.0
2014-Sep-23 04:33N 52°26' E 004°01'0 0.0
2014-Sep-23 03:33N 52°26' E 004°01'0 0.0
2014-Sep-23 02:30N 52°26' E 004°01'0 0.0
2014-Sep-23 01:33N 52°26' E 004°01'0 0.1
2014-Sep-23 00:30N 52°26' E 004°01'4 4.6
2014-Sep-22 23:33N 52°26' E 003°54'10 9.8
2014-Sep-22 22:32N 52°21' E 003°40'9 8.9
2014-Sep-22 21:33N 52°13' E 003°32'34 6.8
2014-Sep-22 16:33N 51°40' E 003°19'1010.6
2014-Sep-22 15:33N 51°31' E 003°26'9 9.1
2014-Sep-22 14:33N 51°26' E 003°39'10 9.9
2014-Sep-22 13:33N 51°24' E 003°54'7 6.6
2014-Sep-22 12:34N 51°24' E 004°05'7 7.0
2014-Sep-22 11:34N 51°21' E 004°15'2 1.6
2014-Sep-22 10:34N 51°21' E 004°17'1 1.3
2014-Sep-22 09:33N 51°20' E 004°18'3 3.1
2014-Sep-22 08:31N 51°17' E 004°21'0 0.0
2014-Sep-22 07:31N 51°17' E 004°21'0 0.0
2014-Sep-22 06:31N 51°17' E 004°21'0 0.0
2014-Sep-22 05:31N 51°17' E 004°21'0 0.0
2014-Sep-22 04:31N 51°17' E 004°21'0 0.0
2014-Sep-22 03:31N 51°17' E 004°21'0 0.0
2014-Sep-22 02:31N 51°17' E 004°21'0 0.0
2014-Sep-22 01:31N 51°17' E 004°21'0 0.0
2014-Sep-22 00:31N 51°17' E 004°21'0 0.0
2014-Sep-21 23:31N 51°17' E 004°21'0 0.0
2014-Sep-21 22:31N 51°17' E 004°21'0 0.0
2014-Sep-21 21:31N 51°17' E 004°21'0 0.0
2014-Sep-21 20:31N 51°17' E 004°21'0 0.0
2014-Sep-21 19:31N 51°17' E 004°21'0 0.0
2014-Sep-21 18:31N 51°17' E 004°21'0 0.0
2014-Sep-21 17:31N 51°17' E 004°21'0 0.0
2014-Sep-21 16:31N 51°17' E 004°21'0 0.0
2014-Sep-21 15:31N 51°17' E 004°21'0 0.0
2014-Sep-21 14:31N 51°17' E 004°21'0 0.0
2014-Sep-21 13:31N 51°17' E 004°21'0 0.0
2014-Sep-21 12:31N 51°17' E 004°21'0 0.0
2014-Sep-21 11:31N 51°17' E 004°21'0 0.0
2014-Sep-21 10:31N 51°17' E 004°21'0 0.0
2014-Sep-21 09:31N 51°17' E 004°21'0 0.0
2014-Sep-21 08:31N 51°17' E 004°21'0 0.0
2014-Sep-21 07:31N 51°17' E 004°21'0 0.0
2014-Sep-21 06:31N 51°17' E 004°21'0 0.0
2014-Sep-21 05:31N 51°17' E 004°21'0 0.0
2014-Sep-21 04:34N 51°17' E 004°21'0 0.0
2014-Sep-21 03:30N 51°17' E 004°21'0 0.0
2014-Sep-21 02:30N 51°17' E 004°21'0 0.0
2014-Sep-21 01:33N 51°17' E 004°21'0 0.0
2014-Sep-21 00:30N 51°17' E 004°21'0 0.0
2014-Sep-20 23:33N 51°17' E 004°21'1 0.9
2014-Sep-20 22:34N 51°17' E 004°20'1 1.4
2014-Sep-20 21:34N 51°18' E 004°18'8 8.1
2014-Sep-20 20:33N 51°22' E 004°08'7 7.2
2014-Sep-20 19:33N 51°22' E 003°56'9 9.5
2014-Sep-20 18:33N 51°24' E 003°41'1010.0
2014-Sep-20 17:33N 51°24' E 003°25'10 9.4
2014-Sep-20 16:30N 51°23' E 003°10'10 9.7
2014-Sep-20 15:28N 51°22' E 002°54'1010.6
2014-Sep-20 14:33N 51°22' E 002°38'1010.2
2014-Sep-20 13:33N 51°19' E 002°22'1111.4
2014-Sep-20 12:33N 51°14' E 002°07'1211.9
2014-Sep-20 11:34N 51°08' E 001°50'1212.4
2014-Sep-20 10:33N 50°59' E 001°36'1612.2
2014-Sep-20 09:14N 50°46' E 001°22'1011.2
2014-Sep-20 08:19N 50°38' E 001°11'911.3
2014-Sep-20 07:32N 50°33' E 000°60'1111.4
2014-Sep-20 06:34N 50°29' E 000°43'1211.6
2014-Sep-20 05:32N 50°26' E 000°25'1111.6
2014-Sep-20 04:33N 50°22' E 000°08'2210.9
2014-Sep-20 02:33N 50°16' W 000°24'1410.0
2014-Sep-20 01:06N 50°12' W 000°46'6 9.3
2014-Sep-20 00:29N 50°10' W 000°55'8 9.0
2014-Sep-19 23:34N 50°08' W 001°07'170 7.4
2014-Sep-19 00:33N 50°37' W 005°30'1010.2
2014-Sep-18 23:33N 50°44' W 005°18'  

Dump ship's entire track history